createdAt,value
2023-05-12T00:02:29.740Z,34.92
2023-05-12T00:03:30.766Z,34.94
2023-05-12T00:04:30.725Z,34.91
2023-05-12T00:05:30.753Z,34.91
2023-05-12T00:06:30.807Z,34.92
2023-05-12T00:07:30.877Z,34.95
2023-05-12T00:08:30.928Z,34.92
2023-05-12T00:09:31.011Z,34.93
2023-05-12T00:10:31.054Z,34.93
2023-05-12T00:11:31.122Z,34.94
2023-05-12T00:12:31.180Z,34.91
2023-05-12T00:13:31.304Z,34.95
2023-05-12T00:14:31.320Z,34.96
2023-05-12T00:15:31.396Z,34.92
2023-05-12T00:16:31.539Z,34.99
2023-05-12T00:17:31.591Z,34.96
2023-05-12T00:18:31.604Z,34.95
2023-05-12T00:19:31.659Z,34.90
2023-05-12T00:20:31.733Z,34.95
2023-05-12T00:21:31.797Z,34.96
2023-05-12T00:22:31.877Z,34.96
2023-05-12T00:23:31.932Z,34.97
2023-05-12T00:24:32.006Z,34.97
2023-05-12T00:25:32.085Z,35.00
2023-05-12T00:26:32.152Z,35.00
2023-05-12T00:27:32.229Z,34.96
2023-05-12T00:28:32.297Z,35.00
2023-05-12T00:29:32.430Z,34.99
2023-05-12T00:30:32.452Z,34.99
2023-05-12T00:31:32.531Z,34.99
2023-05-12T00:32:32.599Z,34.99
2023-05-12T00:33:32.680Z,34.93
2023-05-12T00:34:32.714Z,35.02
2023-05-12T00:35:32.784Z,35.00
2023-05-12T00:36:32.852Z,34.99
2023-05-12T00:37:32.918Z,35.01
2023-05-12T00:38:32.997Z,35.01
2023-05-12T00:39:33.062Z,35.01
2023-05-12T00:40:33.138Z,35.01
2023-05-12T00:41:33.207Z,35.01
2023-05-12T00:42:33.283Z,35.07
2023-05-12T00:43:33.354Z,35.01
2023-05-12T00:44:33.425Z,35.03
2023-05-12T00:45:33.539Z,34.99
2023-05-12T00:46:33.569Z,34.96
2023-05-12T00:47:33.639Z,35.01
2023-05-12T00:48:33.703Z,34.98
2023-05-12T00:49:33.843Z,35.03
2023-05-12T00:50:34.695Z,35.00
2023-05-12T00:51:33.899Z,35.04
2023-05-12T00:52:33.983Z,35.03
2023-05-12T00:53:47.604Z,35.00
2023-05-12T00:54:34.043Z,35.03
2023-05-12T00:55:34.037Z,35.01
2023-05-12T00:56:34.042Z,35.03
2023-05-12T00:57:34.036Z,35.02
2023-05-12T00:58:34.039Z,35.00
2023-05-12T00:59:34.050Z,35.01
2023-05-12T01:00:34.042Z,35.01
2023-05-12T01:01:34.137Z,35.01
2023-05-12T01:02:34.109Z,35.01
2023-05-12T01:03:34.139Z,35.06
2023-05-12T01:04:34.035Z,35.01
2023-05-12T01:05:34.058Z,35.03
2023-05-12T01:06:34.028Z,35.03
2023-05-12T01:07:34.029Z,35.01
2023-05-12T01:08:34.021Z,35.04
2023-05-12T01:09:34.022Z,35.00
2023-05-12T01:10:34.036Z,35.04
2023-05-12T01:11:34.032Z,35.04
2023-05-12T01:12:34.039Z,35.04
2023-05-12T01:13:34.038Z,35.00
2023-05-12T01:14:34.057Z,35.01
2023-05-12T01:15:34.046Z,35.01
2023-05-12T01:16:34.048Z,35.05
2023-05-12T01:17:34.175Z,35.05
2023-05-12T01:18:34.264Z,35.07
2023-05-12T01:19:34.250Z,35.01
2023-05-12T01:20:34.327Z,35.02
2023-05-12T01:21:34.413Z,35.03
2023-05-12T01:22:34.466Z,35.09
2023-05-12T01:23:34.557Z,35.02
2023-05-12T01:24:34.617Z,35.06
2023-05-12T01:25:34.686Z,35.04
2023-05-12T01:26:34.772Z,35.05
2023-05-12T01:27:34.840Z,35.04
2023-05-12T01:28:34.905Z,35.03
2023-05-12T01:29:34.980Z,35.01
2023-05-12T01:30:35.055Z,35.03
2023-05-12T01:31:35.173Z,35.00
2023-05-12T01:32:35.219Z,35.05
2023-05-12T01:33:35.278Z,35.03
2023-05-12T01:34:35.355Z,35.07
2023-05-12T01:35:35.437Z,35.04
2023-05-12T01:36:35.501Z,35.03
2023-05-12T01:37:35.600Z,35.07
2023-05-12T01:38:35.635Z,35.02
2023-05-12T01:39:35.708Z,35.03
2023-05-12T01:40:35.775Z,35.00
2023-05-12T01:41:35.845Z,35.01
2023-05-12T01:42:35.910Z,35.04
2023-05-12T01:43:35.986Z,35.04
2023-05-12T01:44:36.050Z,35.04
2023-05-12T01:45:36.123Z,35.04
2023-05-12T01:46:36.230Z,35.05
2023-05-12T01:47:36.311Z,35.03
2023-05-12T01:48:36.309Z,35.05
2023-05-12T01:49:36.409Z,35.03
2023-05-12T01:50:36.440Z,35.00
2023-05-12T01:51:36.509Z,35.04
2023-05-12T01:52:36.577Z,35.00
2023-05-12T01:53:36.679Z,35.02
2023-05-12T01:54:36.698Z,35.04
2023-05-12T01:55:36.753Z,35.05
2023-05-12T01:56:36.820Z,35.03
2023-05-12T01:57:36.890Z,35.03
2023-05-12T01:58:36.992Z,35.03
2023-05-12T01:59:37.029Z,35.10
2023-05-12T02:00:37.088Z,35.06
2023-05-12T02:01:37.227Z,35.05
2023-05-12T02:02:37.287Z,35.05
2023-05-12T02:03:37.394Z,35.06
2023-05-12T02:04:37.369Z,35.05
2023-05-12T02:05:37.442Z,35.04
2023-05-12T02:06:37.507Z,35.05
2023-05-12T02:07:37.590Z,35.12
2023-05-12T02:08:37.659Z,35.02
2023-05-12T02:09:37.731Z,35.06
2023-05-12T02:10:37.798Z,35.06
2023-05-12T02:11:37.867Z,35.06
2023-05-12T02:12:37.937Z,35.08
2023-05-12T02:13:38.006Z,35.10
2023-05-12T02:14:38.082Z,35.04
2023-05-12T02:15:38.156Z,35.08
2023-05-12T02:16:38.390Z,35.03
2023-05-12T02:17:38.323Z,35.05
2023-05-12T02:18:38.388Z,35.09
2023-05-12T02:19:38.436Z,35.06
2023-05-12T02:20:38.527Z,35.05
2023-05-12T02:21:38.584Z,35.08
2023-05-12T02:22:38.640Z,35.06
2023-05-12T02:23:38.723Z,35.05
2023-05-12T02:24:38.788Z,35.05
2023-05-12T02:25:38.955Z,35.06
2023-05-12T02:26:38.922Z,35.08
2023-05-12T02:27:39.001Z,35.09
2023-05-12T02:28:39.097Z,35.08
2023-05-12T02:29:39.145Z,35.02
2023-05-12T02:30:39.215Z,35.08
2023-05-12T02:31:39.341Z,35.06
2023-05-12T02:32:39.419Z,35.06
2023-05-12T02:33:39.458Z,35.08
2023-05-12T02:34:40.047Z,35.06
2023-05-12T02:35:39.572Z,35.08
2023-05-12T02:36:39.645Z,35.10
2023-05-12T02:37:39.710Z,35.08
2023-05-12T02:38:39.798Z,35.04
2023-05-12T02:39:39.862Z,35.08
2023-05-12T02:40:39.938Z,35.09
2023-05-12T02:41:40.049Z,35.02
2023-05-12T02:42:40.084Z,35.08
2023-05-12T02:43:40.158Z,35.13
2023-05-12T02:44:40.222Z,35.08
2023-05-12T02:45:40.313Z,35.10
2023-05-12T02:46:40.396Z,35.14
2023-05-12T02:47:40.479Z,35.12
2023-05-12T02:48:40.535Z,35.06
2023-05-12T02:49:40.626Z,35.09
2023-05-12T02:50:40.690Z,35.10
2023-05-12T02:51:40.783Z,35.12
2023-05-12T02:52:40.855Z,35.10
2023-05-12T02:53:40.890Z,35.14
2023-05-12T02:54:40.957Z,35.12
2023-05-12T02:55:41.032Z,35.10
2023-05-12T02:56:41.111Z,35.13
2023-05-12T02:57:41.212Z,35.17
2023-05-12T02:58:41.257Z,35.09
2023-05-12T02:59:41.346Z,35.12
2023-05-12T03:00:41.401Z,35.12
2023-05-12T03:01:41.513Z,35.09
2023-05-12T03:02:41.653Z,35.09
2023-05-12T03:03:41.739Z,35.12
2023-05-12T03:04:41.694Z,35.12
2023-05-12T03:05:41.764Z,35.07
2023-05-12T03:06:41.848Z,35.07
2023-05-12T03:07:41.940Z,35.07
2023-05-12T03:08:41.988Z,35.14
2023-05-12T03:09:42.055Z,35.13
2023-05-12T03:10:42.124Z,35.16
2023-05-12T03:11:42.201Z,35.10
2023-05-12T03:12:42.272Z,35.13
2023-05-12T03:13:42.420Z,35.15
2023-05-12T03:14:42.418Z,35.07
2023-05-12T03:15:42.493Z,35.12
2023-05-12T03:16:42.634Z,35.13
2023-05-12T03:17:42.682Z,35.13
2023-05-12T03:18:42.720Z,35.13
2023-05-12T03:19:42.764Z,35.15
2023-05-12T03:20:42.846Z,35.13
2023-05-12T03:21:42.928Z,35.14
2023-05-12T03:22:43.013Z,35.10
2023-05-12T03:23:43.072Z,35.10
2023-05-12T03:24:43.147Z,35.09
2023-05-12T03:25:43.232Z,35.10
2023-05-12T03:26:43.287Z,35.13
2023-05-12T03:27:43.371Z,35.09
2023-05-12T03:28:43.450Z,35.09
2023-05-12T03:29:43.534Z,35.12
2023-05-12T03:30:43.594Z,35.12
2023-05-12T03:31:43.851Z,35.08
2023-05-12T03:32:43.788Z,35.06
2023-05-12T03:33:43.796Z,35.06
2023-05-12T03:34:43.860Z,35.04
2023-05-12T03:35:43.936Z,34.98
2023-05-12T03:36:43.999Z,34.98
2023-05-12T03:37:44.082Z,34.97
2023-05-12T03:38:44.145Z,34.93
2023-05-12T03:39:44.207Z,34.97
2023-05-12T03:40:44.268Z,34.97
2023-05-12T03:41:44.351Z,34.93
2023-05-12T03:42:44.404Z,34.92
2023-05-12T03:43:44.488Z,34.94
2023-05-12T03:44:44.533Z,34.91
2023-05-12T03:45:44.627Z,34.86
2023-05-12T03:46:44.799Z,34.82
2023-05-12T03:47:44.885Z,34.82
2023-05-12T03:48:44.783Z,34.85
2023-05-12T03:49:44.843Z,34.85
2023-05-12T03:50:44.927Z,34.86
2023-05-12T03:51:44.976Z,34.85
2023-05-12T03:52:45.096Z,34.86
2023-05-12T03:53:45.090Z,34.78
2023-05-12T03:54:45.163Z,34.81
2023-05-12T03:55:45.215Z,34.82
2023-05-12T03:56:45.280Z,34.72
2023-05-12T03:57:45.338Z,34.79
2023-05-12T03:58:45.395Z,34.76
2023-05-12T03:59:45.471Z,34.75
2023-05-12T04:00:45.509Z,34.77
2023-05-12T04:01:45.629Z,34.79
2023-05-12T04:02:45.735Z,34.75
2023-05-12T04:03:45.774Z,34.76
2023-05-12T04:04:45.730Z,34.76
2023-05-12T04:05:45.785Z,34.71
2023-05-12T04:06:45.847Z,34.74
2023-05-12T04:07:45.894Z,34.68
2023-05-12T04:08:45.950Z,34.71
2023-05-12T04:09:46.012Z,34.73
2023-05-12T04:10:46.062Z,34.70
2023-05-12T04:11:46.115Z,34.73
2023-05-12T04:12:46.158Z,34.69
2023-05-12T04:13:46.208Z,34.68
2023-05-12T04:14:46.280Z,34.70
2023-05-12T04:15:46.320Z,34.69
2023-05-12T04:16:46.458Z,34.74
2023-05-12T04:17:46.490Z,34.72
2023-05-12T04:18:46.541Z,34.68
2023-05-12T04:19:46.521Z,34.68
2023-05-12T04:20:46.573Z,34.70
2023-05-12T04:21:46.635Z,34.69
2023-05-12T04:22:46.685Z,34.68
2023-05-12T04:23:46.747Z,34.68
2023-05-12T04:24:46.814Z,34.68
2023-05-12T04:25:46.846Z,34.72
2023-05-12T04:26:46.894Z,34.68
2023-05-12T04:27:46.947Z,34.69
2023-05-12T04:28:46.974Z,34.65
2023-05-12T04:29:47.021Z,34.65
2023-05-12T04:30:47.060Z,34.69
2023-05-12T04:31:47.157Z,34.65
2023-05-12T04:32:47.251Z,34.69
2023-05-12T04:33:48.373Z,34.65
2023-05-12T04:34:47.262Z,34.65
2023-05-12T04:35:47.310Z,34.68
2023-05-12T04:36:47.349Z,34.70
2023-05-12T04:37:47.410Z,34.67
2023-05-12T04:38:47.456Z,34.68
2023-05-12T04:39:47.497Z,34.73
2023-05-12T04:40:47.540Z,34.69
2023-05-12T04:41:47.591Z,34.68
2023-05-12T04:42:47.643Z,34.70
2023-05-12T04:44:46.684Z,34.67
2023-05-12T04:45:47.733Z,34.67
2023-05-12T04:46:47.694Z,34.70
2023-05-12T04:47:47.724Z,34.64
2023-05-12T04:48:47.693Z,34.68
2023-05-12T04:49:47.731Z,34.66
2023-05-12T04:50:47.701Z,34.68
2023-05-12T04:51:47.734Z,34.69
2023-05-12T04:52:47.709Z,34.68
2023-05-12T04:53:47.708Z,34.67
2023-05-12T04:54:47.702Z,34.67
2023-05-12T04:55:47.716Z,34.65
2023-05-12T04:56:47.711Z,34.68
2023-05-12T04:57:47.718Z,34.68
2023-05-12T04:58:47.722Z,34.72
2023-05-12T04:59:47.729Z,34.69
2023-05-12T05:00:47.716Z,34.68
2023-05-12T05:01:47.812Z,34.68
2023-05-12T05:02:47.810Z,34.68
2023-05-12T05:03:47.925Z,34.67
2023-05-12T05:04:47.730Z,34.68
2023-05-12T05:05:47.769Z,34.67
2023-05-12T05:06:47.738Z,34.68
2023-05-12T05:07:47.738Z,34.71
2023-05-12T05:08:47.724Z,34.72
2023-05-12T05:09:47.727Z,34.74
2023-05-12T05:10:47.739Z,34.70
2023-05-12T05:11:47.736Z,34.63
2023-05-12T05:12:47.734Z,34.53
2023-05-12T05:13:47.739Z,34.31
2023-05-12T05:14:47.750Z,34.30
2023-05-12T05:15:47.760Z,34.13
2023-05-12T05:16:47.787Z,34.06
2023-05-12T05:17:47.794Z,33.83
2023-05-12T05:18:47.805Z,33.58
2023-05-12T05:19:57.579Z,33.22
2023-05-12T05:21:46.845Z,33.35
2023-05-12T05:22:48.325Z,33.22
2023-05-12T05:23:47.826Z,33.02
2023-05-12T05:24:47.822Z,32.95
2023-05-12T05:25:47.820Z,32.87
2023-05-12T05:26:47.827Z,32.85
2023-05-12T05:27:47.838Z,32.79
2023-05-12T05:28:47.843Z,32.73
2023-05-12T05:29:47.864Z,32.64
2023-05-12T05:30:47.866Z,32.60
2023-05-12T05:47:19.296Z,32.21
2023-05-12T05:48:20.268Z,32.22
2023-05-12T05:49:23.481Z,32.51
2023-05-12T05:50:20.281Z,32.62
2023-05-12T05:51:20.284Z,32.65
2023-05-12T05:52:27.675Z,32.74
2023-05-12T05:53:21.015Z,32.94
2023-05-12T05:54:23.441Z,32.91
2023-05-12T05:55:20.538Z,33.19
2023-05-12T05:57:35.790Z,34.01
2023-05-12T05:58:23.435Z,33.40
2023-05-12T05:59:20.175Z,33.83
2023-05-12T06:00:52.082Z,33.43
2023-05-12T06:01:20.260Z,33.06
2023-05-12T06:02:20.266Z,33.36
2023-05-12T18:45:26.287Z,33.10
2023-05-12T18:46:27.336Z,33.06
2023-05-12T18:47:27.398Z,33.06
2023-05-12T18:48:27.405Z,33.03
2023-05-12T18:49:27.455Z,33.02
2023-05-12T18:50:27.464Z,33.02
2023-05-12T18:51:27.504Z,32.99
2023-05-12T18:52:27.544Z,32.96
2023-05-12T18:53:27.589Z,33.01
2023-05-12T18:54:27.609Z,32.98
2023-05-12T18:55:27.645Z,33.00
2023-05-12T18:56:27.687Z,33.00
2023-05-12T18:57:27.718Z,33.02
2023-05-12T18:58:27.747Z,32.98
2023-05-12T18:59:27.782Z,32.99
2023-05-12T19:00:27.830Z,33.01
2023-05-12T19:01:27.949Z,33.08
2023-05-12T19:02:28.035Z,33.03
2023-05-12T19:03:27.934Z,32.99
2023-05-12T19:04:27.964Z,33.03
2023-05-12T19:05:28.027Z,33.06
2023-05-12T19:06:28.026Z,33.09
2023-05-12T19:07:28.067Z,33.01
2023-05-12T19:08:28.103Z,33.06
2023-05-12T19:09:28.148Z,33.05
2023-05-12T19:10:28.173Z,33.07
2023-05-12T19:11:28.210Z,33.03
2023-05-12T19:12:28.245Z,33.12
2023-05-12T19:13:28.281Z,33.05
2023-05-12T19:14:28.315Z,33.06
2023-05-12T19:15:28.351Z,33.13
2023-05-12T19:16:28.424Z,33.07
2023-05-12T19:17:28.599Z,33.11
2023-05-12T19:18:28.474Z,33.12
2023-05-12T19:19:28.493Z,33.12
2023-05-12T19:20:28.522Z,33.09
2023-05-12T19:21:28.576Z,33.12
2023-05-12T19:22:28.584Z,33.09
2023-05-12T19:23:28.637Z,33.06
2023-05-12T19:24:28.653Z,33.08
2023-05-12T19:25:28.693Z,33.10
2023-05-12T19:26:28.754Z,33.15
2023-05-12T19:27:28.771Z,33.09
2023-05-12T19:28:28.804Z,33.15
2023-05-12T19:29:28.828Z,33.13
2023-05-12T19:30:28.861Z,33.13
2023-05-12T19:31:28.984Z,33.12
2023-05-12T19:32:28.954Z,33.19
2023-05-12T19:33:28.993Z,33.15
2023-05-12T19:34:29.007Z,33.10
2023-05-12T19:35:29.040Z,33.17
2023-05-12T19:36:29.107Z,33.16
2023-05-12T19:37:29.139Z,33.16
2023-05-12T19:38:29.150Z,33.17
2023-05-12T19:39:29.201Z,33.17
2023-05-12T19:40:29.229Z,33.17
2023-05-12T19:41:29.261Z,33.18
2023-05-12T19:42:29.309Z,33.17
2023-05-12T19:43:29.335Z,33.17
2023-05-12T19:44:30.126Z,33.17
2023-05-12T19:45:29.423Z,33.22
2023-05-12T19:46:29.432Z,33.16
2023-05-12T19:47:29.473Z,33.16
2023-05-12T19:48:29.494Z,33.22
2023-05-12T19:49:29.596Z,33.19
2023-05-12T19:50:29.672Z,33.23
2023-05-12T19:51:29.606Z,33.20
2023-05-12T19:52:29.677Z,33.23
2023-05-12T19:53:29.683Z,33.20
2023-05-12T19:54:29.732Z,33.23
2023-05-12T19:55:29.767Z,33.26
2023-05-12T19:56:29.811Z,33.23
2023-05-12T19:57:29.856Z,33.24
2023-05-12T19:58:29.876Z,33.22
2023-05-12T19:59:29.917Z,33.25
2023-05-12T20:00:29.975Z,33.29
2023-05-12T20:01:30.064Z,33.24
2023-05-12T20:02:30.125Z,33.23
2023-05-12T20:03:30.202Z,33.26
2023-05-12T20:04:30.108Z,33.30
2023-05-12T20:05:30.178Z,33.24
2023-05-12T20:06:30.191Z,33.26
2023-05-12T20:07:30.245Z,33.30
2023-05-12T20:08:30.264Z,33.28
2023-05-12T20:09:30.301Z,33.29
2023-05-12T20:10:30.346Z,33.24
2023-05-12T20:11:30.377Z,33.27
2023-05-12T20:12:30.420Z,33.27
2023-05-12T20:13:30.445Z,33.30
2023-05-12T20:14:30.478Z,33.29
2023-05-12T20:15:30.525Z,33.32
2023-05-12T20:16:30.596Z,33.33
2023-05-12T20:17:30.637Z,33.29
2023-05-12T20:18:30.654Z,33.34
2023-05-12T20:19:30.674Z,33.28
2023-05-12T20:20:30.711Z,33.33
2023-05-12T20:21:30.770Z,33.30
2023-05-12T20:22:30.783Z,33.30
2023-05-12T20:23:30.818Z,33.33
2023-05-12T20:24:30.857Z,33.32
2023-05-12T20:25:30.892Z,33.33
2023-05-12T20:26:30.929Z,33.37
2023-05-12T20:27:30.965Z,33.35
2023-05-12T20:28:31.006Z,33.32
2023-05-12T20:29:31.050Z,33.31
2023-05-12T20:30:31.096Z,33.33
2023-05-12T20:31:31.198Z,33.38
2023-05-12T20:32:31.171Z,33.34
2023-05-12T20:33:31.201Z,33.33
2023-05-12T20:34:31.247Z,33.37
2023-05-12T20:35:31.297Z,33.40
2023-05-12T20:36:31.325Z,33.39
2023-05-12T20:37:31.395Z,33.34
2023-05-12T20:38:31.418Z,33.38
2023-05-12T20:39:31.484Z,33.37
2023-05-12T20:40:31.488Z,33.39
2023-05-12T20:41:31.525Z,33.37
2023-05-12T20:42:31.563Z,33.40
2023-05-12T20:43:31.619Z,33.40
2023-05-12T20:44:31.657Z,33.41
2023-05-12T20:45:31.690Z,33.40
2023-05-12T20:46:31.811Z,33.37
2023-05-12T20:47:31.927Z,33.41
2023-05-12T20:48:31.810Z,33.41
2023-05-12T20:49:31.858Z,33.43
2023-05-12T20:50:31.901Z,33.43
2023-05-12T20:51:31.941Z,33.38
2023-05-12T20:52:31.979Z,33.38
2023-05-12T20:53:32.036Z,33.41
2023-05-12T20:54:32.061Z,33.43
2023-05-12T20:55:32.095Z,33.43
2023-05-12T20:56:32.146Z,33.43
2023-05-12T20:57:32.177Z,33.45
2023-05-12T20:58:32.219Z,33.44
2023-05-12T20:59:32.273Z,33.45
2023-05-12T21:00:32.297Z,33.44
2023-05-12T21:01:32.397Z,33.47
2023-05-12T21:02:32.481Z,33.47
2023-05-12T21:03:32.458Z,33.41
2023-05-12T21:04:32.443Z,33.45
2023-05-12T21:05:32.483Z,33.48
2023-05-12T21:06:32.543Z,33.47
2023-05-12T21:07:32.582Z,33.43
2023-05-12T21:08:32.605Z,33.48
2023-05-12T21:09:32.680Z,33.48
2023-05-12T21:10:32.690Z,33.50
2023-05-12T21:11:32.789Z,33.44
2023-05-12T21:12:32.774Z,33.45
2023-05-12T21:13:32.809Z,33.44
2023-05-12T21:14:32.852Z,33.47
2023-05-12T21:15:32.893Z,33.44
2023-05-12T21:16:32.955Z,33.45
2023-05-12T21:17:33.003Z,33.52
2023-05-12T21:18:33.062Z,33.50
2023-05-12T21:19:33.067Z,33.50
2023-05-12T21:20:33.105Z,33.51
2023-05-12T21:21:33.142Z,33.47
2023-05-12T21:22:33.189Z,33.51
2023-05-12T21:23:33.227Z,33.51
2023-05-12T21:24:33.268Z,33.48
2023-05-12T21:25:33.326Z,33.51
2023-05-12T21:26:33.344Z,33.54
2023-05-12T21:27:33.383Z,33.51
2023-05-12T21:28:33.427Z,33.51
2023-05-12T21:29:33.470Z,33.55
2023-05-12T21:30:33.506Z,33.51
2023-05-12T21:31:33.594Z,33.54
2023-05-12T21:32:33.619Z,33.52
2023-05-12T21:33:33.611Z,33.51
2023-05-12T21:34:33.806Z,33.53
2023-05-12T21:35:33.687Z,33.52
2023-05-12T21:36:33.716Z,33.54
2023-05-12T21:37:33.750Z,33.52
2023-05-12T21:38:33.785Z,33.54
2023-05-12T21:39:33.829Z,33.57
2023-05-12T21:40:33.858Z,33.52
2023-05-12T21:41:33.906Z,33.50
2023-05-12T21:42:33.932Z,33.57
2023-05-12T21:43:33.974Z,33.58
2023-05-12T21:44:33.996Z,33.55
2023-05-12T21:45:34.035Z,33.60
2023-05-12T21:46:34.096Z,33.57
2023-05-12T21:47:34.169Z,33.60
2023-05-12T21:48:34.147Z,33.54
2023-05-12T21:49:34.190Z,33.54
2023-05-12T21:50:34.215Z,33.60
2023-05-12T21:51:34.256Z,33.55
2023-05-12T21:52:34.311Z,33.59
2023-05-12T21:53:34.338Z,33.59
2023-05-12T21:54:34.365Z,33.55
2023-05-12T21:55:34.411Z,33.65
2023-05-12T21:56:34.453Z,33.60
2023-05-12T21:57:34.522Z,33.60
2023-05-12T21:58:34.521Z,33.61
2023-05-12T21:59:34.557Z,33.61
2023-05-12T22:00:34.610Z,33.59
2023-05-12T22:01:34.741Z,33.62
2023-05-12T22:02:34.704Z,33.60
2023-05-12T22:03:34.738Z,33.64
2023-05-12T22:04:34.747Z,33.56
2023-05-12T22:05:34.787Z,33.62
2023-05-12T22:06:34.827Z,33.61
2023-05-12T22:07:34.866Z,33.64
2023-05-12T22:08:34.903Z,33.60
2023-05-12T22:09:34.947Z,33.61
2023-05-12T22:10:34.990Z,33.59
2023-05-12T22:11:35.028Z,33.60
2023-05-12T22:12:35.076Z,33.65
2023-05-12T22:13:35.137Z,33.65
2023-05-12T22:14:35.157Z,33.62
2023-05-12T22:15:35.244Z,33.61
2023-05-12T22:16:41.950Z,33.61
2023-05-12T22:17:35.257Z,33.65
2023-05-12T22:18:35.250Z,33.66
2023-05-12T22:19:35.239Z,33.64
2023-05-12T22:20:35.240Z,33.71
2023-05-12T22:21:35.760Z,33.66
2023-05-12T22:22:35.249Z,33.62
2023-05-12T22:23:35.261Z,33.62
2023-05-12T22:24:35.249Z,33.66
2023-05-12T22:25:35.253Z,33.72
2023-05-12T22:26:35.252Z,33.65
2023-05-12T22:27:35.254Z,33.63
2023-05-12T22:28:35.266Z,33.66
2023-05-12T22:29:35.286Z,33.69
2023-05-12T22:30:35.285Z,33.68
2023-05-12T22:31:35.299Z,33.62
2023-05-12T22:32:35.311Z,33.69
2023-05-12T22:33:35.256Z,33.69
2023-05-12T22:34:35.264Z,33.65
2023-05-12T22:35:35.263Z,33.67
2023-05-12T22:36:35.259Z,33.66
2023-05-12T22:37:35.265Z,33.70
2023-05-12T22:38:35.339Z,33.68
2023-05-12T22:39:35.264Z,33.68
2023-05-12T22:40:35.278Z,33.65
2023-05-12T22:41:35.267Z,33.69
2023-05-12T22:42:35.268Z,33.70
2023-05-12T22:43:35.257Z,33.69
2023-05-12T22:44:35.257Z,33.70
2023-05-12T22:45:35.340Z,33.69
2023-05-12T22:46:35.259Z,33.69
2023-05-12T22:47:35.291Z,33.70
2023-05-12T22:48:39.184Z,33.70
2023-05-12T22:49:35.286Z,33.68
2023-05-12T22:50:35.312Z,33.68
2023-05-12T22:51:35.315Z,33.72
2023-05-12T22:52:35.357Z,33.72
2023-05-12T22:53:35.388Z,33.75
2023-05-12T22:54:35.430Z,33.71
2023-05-12T22:55:35.468Z,33.74
2023-05-12T22:56:35.506Z,33.71
2023-05-12T22:57:35.549Z,33.70
2023-05-12T22:58:35.593Z,33.73
2023-05-12T22:59:35.639Z,33.72
2023-05-12T23:00:35.695Z,33.73
2023-05-12T23:01:35.751Z,33.74
2023-05-12T23:02:35.773Z,33.75
2023-05-12T23:03:35.860Z,33.73
2023-05-12T23:55:37.671Z,33.73
2023-05-12T23:56:38.623Z,33.78
2023-05-12T23:57:38.648Z,33.81
2023-05-12T23:58:38.640Z,33.78
2023-05-12T23:59:38.660Z,33.78
